Lexington, KY

8:22 AM EDT on May 24, 2017 (GMT -0400)
Lansdowne Merrick | | Change Station

Elev 994 ft 38.00 °N, 84.49 °W | Updated 5 minutes ago

Mostly Cloudy
Mostly Cloudy
61.2 °F
Feels Like 61.2 °F
N
3.1
Wind Variable Wind from North
Gusts 8.1 mph

Today
High -- | Low -- °F
--% Chance of Precip.
Yesterday
High -- | Low -- °F
Precip. -- in
Pressure 29.53 in
Visibility 10.0 miles
Clouds Scattered Clouds 7500 ft
Dew Point 58 °F
Humidity 91%
Rainfall 0.00 in
Snow Depth Not available.
6:20 AM 8:49 PM
Waning Crescent, 3% visible
METAR KLEX 241154Z 14006KT 10SM SCT075 16/14 A2955 RMK AO2 SLP999 70006 T01560139 10156 20150 55010
Pressure 29.53 in
Visibility 10.0 miles
Clouds Scattered Clouds 7500 ft
Dew Point 58 °F
Humidity 91%
Rainfall 0.00 in
Snow Depth Not available.
6:20 AM 8:49 PM
Waning Crescent, 3% visible
METAR KLEX 241154Z 14006KT 10SM SCT075 16/14 A2955 RMK AO2 SLP999 70006 T01560139 10156 20150 55010

Get Severe Weather Alerts

Thanks for signing up!

Be on the lookout for a verification email in your inbox.

You'll start receiving the daily forecast at 6 AM.

×

10-Day Weather Forecast

Almanac

Astronomy

May. 24, 2017 Rise Set
Actual Time
Civil Twilight
Nautical Twilight
Astronomical Twilight
Moon
Length of Visible Light
Length of Day
Tomorrow will be .
, % of the Moon is Illuminated

Today's Extremes

State Highs State Lows

Community

WunderPhotos

Category 6

Welcome to Category 6. This is the collective home for Weather Underground's featured writeups by Dr. Jeff Masters (right), Bob Henson (left), Chris Burt, and other regular contributors.

Nearby

Air Quality

  Air Quality AQ Index Pollutant
Not available.

Snow Depth

Station Depth Elevation

Earthquake Activity

City Distance Mag. Time & Date
Minimum magnitude displayed is 2.5.

Coastal Water Temperatures

Place Temperature

Stations

Nearby Weather Stations

Station Location Temp. Windchill Dew Point Humidity Wind Precip. Elev Updated Type
                   

Watches & Warnings

There are currently no watches in effect.